sensor_id;sensor_type;location;lat;lon;timestamp;P1;durP1;ratioP1;P2;durP2;ratioP2
47659;SDS011;33403;43.608;1.458;2023-07-13T00:02:22;4.13;;;2.90;;
47659;SDS011;33403;43.608;1.458;2023-07-13T00:04:49;5.18;;;2.78;;
47659;SDS011;33403;43.608;1.458;2023-07-13T00:07:15;5.15;;;3.08;;
47659;SDS011;33403;43.608;1.458;2023-07-13T00:09:44;4.00;;;2.60;;
47659;SDS011;33403;43.608;1.458;2023-07-13T00:12:28;3.35;;;2.35;;
47659;SDS011;33403;43.608;1.458;2023-07-13T00:14:56;3.92;;;2.25;;
47659;SDS011;33403;43.608;1.458;2023-07-13T00:17:23;5.00;;;2.60;;
47659;SDS011;33403;43.608;1.458;2023-07-13T00:19:49;3.85;;;2.58;;
47659;SDS011;33403;43.608;1.458;2023-07-13T00:22:14;3.33;;;2.33;;
47659;SDS011;33403;43.608;1.458;2023-07-13T00:24:40;3.25;;;2.40;;
47659;SDS011;33403;43.608;1.458;2023-07-13T00:27:07;4.47;;;2.30;;
47659;SDS011;33403;43.608;1.458;2023-07-13T00:29:36;3.10;;;2.50;;
47659;SDS011;33403;43.608;1.458;2023-07-13T00:32:03;3.58;;;2.25;;
47659;SDS011;33403;43.608;1.458;2023-07-13T00:34:30;3.10;;;2.17;;
47659;SDS011;33403;43.608;1.458;2023-07-13T00:36:55;3.42;;;2.25;;
47659;SDS011;33403;43.608;1.458;2023-07-13T00:39:21;3.70;;;2.35;;
47659;SDS011;33403;43.608;1.458;2023-07-13T00:41:47;4.45;;;2.75;;
47659;SDS011;33403;43.608;1.458;2023-07-13T00:44:14;3.42;;;2.30;;
47659;SDS011;33403;43.608;1.458;2023-07-13T00:46:41;3.25;;;2.40;;
47659;SDS011;33403;43.608;1.458;2023-07-13T00:49:07;3.42;;;2.30;;
47659;SDS011;33403;43.608;1.458;2023-07-13T00:51:43;3.50;;;2.35;;
47659;SDS011;33403;43.608;1.458;2023-07-13T00:54:39;3.08;;;2.33;;
47659;SDS011;33403;43.608;1.458;2023-07-13T00:57:09;5.50;;;2.45;;
47659;SDS011;33403;43.608;1.458;2023-07-13T00:59:42;3.55;;;2.25;;
47659;SDS011;33403;43.608;1.458;2023-07-13T01:02:11;2.95;;;2.25;;
47659;SDS011;33403;43.608;1.458;2023-07-13T01:04:37;3.45;;;2.20;;
47659;SDS011;33403;43.608;1.458;2023-07-13T01:07:03;6.15;;;2.50;;
47659;SDS011;33403;43.608;1.458;2023-07-13T01:09:31;3.38;;;2.30;;
47659;SDS011;33403;43.608;1.458;2023-07-13T01:11:57;3.63;;;2.22;;
47659;SDS011;33403;43.608;1.458;2023-07-13T01:14:24;3.28;;;2.22;;
47659;SDS011;33403;43.608;1.458;2023-07-13T01:16:50;3.35;;;2.30;;
47659;SDS011;33403;43.608;1.458;2023-07-13T01:19:36;3.00;;;2.35;;
47659;SDS011;33403;43.608;1.458;2023-07-13T01:22:10;3.15;;;2.20;;
47659;SDS011;33403;43.608;1.458;2023-07-13T01:24:42;5.75;;;2.30;;
47659;SDS011;33403;43.608;1.458;2023-07-13T01:27:11;3.85;;;2.20;;
47659;SDS011;33403;43.608;1.458;2023-07-13T01:29:40;4.28;;;2.30;;
47659;SDS011;33403;43.608;1.458;2023-07-13T01:32:08;3.67;;;2.20;;
47659;SDS011;33403;43.608;1.458;2023-07-13T01:34:36;2.65;;;2.40;;
47659;SDS011;33403;43.608;1.458;2023-07-13T01:37:02;4.60;;;2.30;;
47659;SDS011;33403;43.608;1.458;2023-07-13T01:39:29;4.45;;;2.28;;
47659;SDS011;33403;43.608;1.458;2023-07-13T01:41:55;3.67;;;2.03;;
47659;SDS011;33403;43.608;1.458;2023-07-13T01:44:20;3.50;;;2.33;;
47659;SDS011;33403;43.608;1.458;2023-07-13T01:46:46;3.25;;;2.30;;
47659;SDS011;33403;43.608;1.458;2023-07-13T01:49:12;3.63;;;2.47;;
47659;SDS011;33403;43.608;1.458;2023-07-13T01:51:37;3.33;;;2.20;;
47659;SDS011;33403;43.608;1.458;2023-07-13T01:54:03;4.55;;;2.42;;
47659;SDS011;33403;43.608;1.458;2023-07-13T01:56:29;5.25;;;2.60;;
47659;SDS011;33403;43.608;1.458;2023-07-13T01:58:54;2.70;;;2.20;;
47659;SDS011;33403;43.608;1.458;2023-07-13T02:01:20;3.38;;;2.30;;
47659;SDS011;33403;43.608;1.458;2023-07-13T02:03:45;4.78;;;2.40;;
47659;SDS011;33403;43.608;1.458;2023-07-13T02:06:11;3.40;;;2.58;;
47659;SDS011;33403;43.608;1.458;2023-07-13T02:08:37;3.28;;;2.25;;
47659;SDS011;33403;43.608;1.458;2023-07-13T02:11:03;4.10;;;2.25;;
47659;SDS011;33403;43.608;1.458;2023-07-13T02:13:29;3.47;;;2.35;;
47659;SDS011;33403;43.608;1.458;2023-07-13T02:15:55;3.97;;;2.53;;
47659;SDS011;33403;43.608;1.458;2023-07-13T02:18:20;5.15;;;2.53;;
47659;SDS011;33403;43.608;1.458;2023-07-13T02:20:46;6.70;;;2.28;;
47659;SDS011;33403;43.608;1.458;2023-07-13T02:23:11;4.05;;;2.40;;
47659;SDS011;33403;43.608;1.458;2023-07-13T02:25:37;4.78;;;2.38;;
47659;SDS011;33403;43.608;1.458;2023-07-13T02:28:03;6.47;;;2.65;;
47659;SDS011;33403;43.608;1.458;2023-07-13T02:30:29;5.68;;;2.47;;
47659;SDS011;33403;43.608;1.458;2023-07-13T02:32:56;4.13;;;2.53;;
47659;SDS011;33403;43.608;1.458;2023-07-13T02:35:22;3.97;;;2.50;;
47659;SDS011;33403;43.608;1.458;2023-07-13T02:37:47;5.43;;;2.90;;
47659;SDS011;33403;43.608;1.458;2023-07-13T02:40:13;5.22;;;2.47;;
47659;SDS011;33403;43.608;1.458;2023-07-13T02:42:39;2.78;;;2.13;;
47659;SDS011;33403;43.608;1.458;2023-07-13T02:45:05;4.60;;;2.53;;
47659;SDS011;33403;43.608;1.458;2023-07-13T02:47:32;4.13;;;2.40;;
47659;SDS011;33403;43.608;1.458;2023-07-13T02:49:58;6.38;;;2.65;;
47659;SDS011;33403;43.608;1.458;2023-07-13T02:52:24;4.82;;;2.45;;
47659;SDS011;33403;43.608;1.458;2023-07-13T02:54:50;7.10;;;2.70;;
47659;SDS011;33403;43.608;1.458;2023-07-13T02:57:16;5.05;;;2.53;;
47659;SDS011;33403;43.608;1.458;2023-07-13T02:59:41;4.38;;;2.25;;
47659;SDS011;33403;43.608;1.458;2023-07-13T03:02:07;5.13;;;2.20;;
47659;SDS011;33403;43.608;1.458;2023-07-13T03:04:34;4.53;;;2.20;;
47659;SDS011;33403;43.608;1.458;2023-07-13T03:07:01;4.30;;;2.28;;
47659;SDS011;33403;43.608;1.458;2023-07-13T03:09:26;4.82;;;2.30;;
47659;SDS011;33403;43.608;1.458;2023-07-13T03:11:53;6.30;;;2.28;;
47659;SDS011;33403;43.608;1.458;2023-07-13T03:14:20;6.25;;;2.20;;
47659;SDS011;33403;43.608;1.458;2023-07-13T03:16:47;4.25;;;2.20;;
47659;SDS011;33403;43.608;1.458;2023-07-13T03:19:13;3.72;;;2.00;;
47659;SDS011;33403;43.608;1.458;2023-07-13T03:21:38;5.35;;;2.30;;
47659;SDS011;33403;43.608;1.458;2023-07-13T03:24:04;5.57;;;2.00;;
47659;SDS011;33403;43.608;1.458;2023-07-13T03:26:30;6.22;;;2.33;;
47659;SDS011;33403;43.608;1.458;2023-07-13T03:28:56;3.95;;;1.98;;
47659;SDS011;33403;43.608;1.458;2023-07-13T03:31:24;4.63;;;2.00;;
47659;SDS011;33403;43.608;1.458;2023-07-13T03:33:53;5.95;;;2.40;;
47659;SDS011;33403;43.608;1.458;2023-07-13T03:36:21;4.10;;;2.30;;
47659;SDS011;33403;43.608;1.458;2023-07-13T03:38:50;6.07;;;1.90;;
47659;SDS011;33403;43.608;1.458;2023-07-13T03:41:18;3.65;;;1.85;;
47659;SDS011;33403;43.608;1.458;2023-07-13T03:43:44;4.90;;;1.98;;
47659;SDS011;33403;43.608;1.458;2023-07-13T03:46:10;6.18;;;2.25;;
47659;SDS011;33403;43.608;1.458;2023-07-13T03:48:36;5.25;;;2.10;;
47659;SDS011;33403;43.608;1.458;2023-07-13T03:51:01;4.55;;;2.00;;
47659;SDS011;33403;43.608;1.458;2023-07-13T03:53:27;5.28;;;2.00;;
47659;SDS011;33403;43.608;1.458;2023-07-13T03:55:53;3.80;;;1.83;;
47659;SDS011;33403;43.608;1.458;2023-07-13T04:00:51;4.70;;;1.98;;
47659;SDS011;33403;43.608;1.458;2023-07-13T04:03:17;6.40;;;2.20;;
47659;SDS011;33403;43.608;1.458;2023-07-13T04:05:43;6.80;;;2.38;;
47659;SDS011;33403;43.608;1.458;2023-07-13T04:08:08;4.95;;;2.33;;
47659;SDS011;33403;43.608;1.458;2023-07-13T04:10:34;3.92;;;2.10;;
47659;SDS011;33403;43.608;1.458;2023-07-13T04:13:00;6.85;;;2.63;;
47659;SDS011;33403;43.608;1.458;2023-07-13T04:15:26;4.95;;;2.10;;
47659;SDS011;33403;43.608;1.458;2023-07-13T04:17:54;6.93;;;2.40;;
47659;SDS011;33403;43.608;1.458;2023-07-13T04:20:19;4.00;;;2.05;;
47659;SDS011;33403;43.608;1.458;2023-07-13T04:22:46;5.32;;;2.00;;
47659;SDS011;33403;43.608;1.458;2023-07-13T04:25:12;4.68;;;2.03;;
47659;SDS011;33403;43.608;1.458;2023-07-13T04:27:38;7.03;;;2.35;;
47659;SDS011;33403;43.608;1.458;2023-07-13T04:30:05;5.68;;;2.10;;
47659;SDS011;33403;43.608;1.458;2023-07-13T04:32:31;4.53;;;2.00;;
47659;SDS011;33403;43.608;1.458;2023-07-13T04:34:57;5.05;;;1.98;;
47659;SDS011;33403;43.608;1.458;2023-07-13T04:37:24;4.57;;;2.20;;
47659;SDS011;33403;43.608;1.458;2023-07-13T04:39:51;5.70;;;2.28;;
47659;SDS011;33403;43.608;1.458;2023-07-13T04:42:17;6.05;;;2.22;;
47659;SDS011;33403;43.608;1.458;2023-07-13T04:44:47;6.07;;;2.20;;
47659;SDS011;33403;43.608;1.458;2023-07-13T04:47:14;5.43;;;2.10;;
47659;SDS011;33403;43.608;1.458;2023-07-13T04:49:39;5.00;;;2.05;;
47659;SDS011;33403;43.608;1.458;2023-07-13T04:52:05;4.63;;;2.13;;
47659;SDS011;33403;43.608;1.458;2023-07-13T04:54:32;4.45;;;1.90;;
47659;SDS011;33403;43.608;1.458;2023-07-13T04:56:59;4.30;;;1.90;;
47659;SDS011;33403;43.608;1.458;2023-07-13T04:59:24;6.43;;;2.22;;
47659;SDS011;33403;43.608;1.458;2023-07-13T05:01:50;5.32;;;1.90;;
47659;SDS011;33403;43.608;1.458;2023-07-13T05:04:16;3.70;;;1.70;;
47659;SDS011;33403;43.608;1.458;2023-07-13T05:06:42;3.72;;;1.90;;
47659;SDS011;33403;43.608;1.458;2023-07-13T05:09:07;6.97;;;1.98;;
47659;SDS011;33403;43.608;1.458;2023-07-13T05:11:33;4.85;;;1.85;;
47659;SDS011;33403;43.608;1.458;2023-07-13T05:13:59;3.83;;;2.00;;
47659;SDS011;33403;43.608;1.458;2023-07-13T05:16:26;4.85;;;2.03;;
47659;SDS011;33403;43.608;1.458;2023-07-13T05:18:52;3.92;;;1.80;;
47659;SDS011;33403;43.608;1.458;2023-07-13T05:21:18;3.60;;;1.70;;
47659;SDS011;33403;43.608;1.458;2023-07-13T05:23:44;4.55;;;1.73;;
47659;SDS011;33403;43.608;1.458;2023-07-13T05:26:10;3.63;;;1.70;;
47659;SDS011;33403;43.608;1.458;2023-07-13T05:28:36;3.75;;;1.98;;
47659;SDS011;33403;43.608;1.458;2023-07-13T05:31:03;5.07;;;2.35;;
47659;SDS011;33403;43.608;1.458;2023-07-13T05:33:29;5.05;;;1.85;;
47659;SDS011;33403;43.608;1.458;2023-07-13T05:35:55;4.50;;;1.98;;
47659;SDS011;33403;43.608;1.458;2023-07-13T05:38:21;7.90;;;1.90;;
47659;SDS011;33403;43.608;1.458;2023-07-13T05:40:47;2.85;;;1.30;;
47659;SDS011;33403;43.608;1.458;2023-07-13T05:43:13;4.82;;;1.80;;
47659;SDS011;33403;43.608;1.458;2023-07-13T05:45:39;4.50;;;1.70;;
47659;SDS011;33403;43.608;1.458;2023-07-13T05:48:05;4.63;;;1.90;;
47659;SDS011;33403;43.608;1.458;2023-07-13T05:50:31;4.03;;;1.60;;
47659;SDS011;33403;43.608;1.458;2023-07-13T05:52:57;4.30;;;1.50;;
47659;SDS011;33403;43.608;1.458;2023-07-13T05:55:23;4.70;;;1.60;;
47659;SDS011;33403;43.608;1.458;2023-07-13T05:57:48;5.28;;;1.80;;
47659;SDS011;33403;43.608;1.458;2023-07-13T06:00:14;6.03;;;1.73;;
47659;SDS011;33403;43.608;1.458;2023-07-13T06:02:41;6.00;;;1.73;;
47659;SDS011;33403;43.608;1.458;2023-07-13T06:05:07;4.43;;;1.63;;
47659;SDS011;33403;43.608;1.458;2023-07-13T06:07:32;6.10;;;1.80;;
47659;SDS011;33403;43.608;1.458;2023-07-13T06:09:58;4.95;;;2.00;;
47659;SDS011;33403;43.608;1.458;2023-07-13T06:12:24;5.45;;;1.70;;
47659;SDS011;33403;43.608;1.458;2023-07-13T06:14:50;4.80;;;1.73;;
47659;SDS011;33403;43.608;1.458;2023-07-13T06:17:16;5.68;;;1.60;;
47659;SDS011;33403;43.608;1.458;2023-07-13T06:19:41;6.75;;;1.50;;
47659;SDS011;33403;43.608;1.458;2023-07-13T06:22:07;3.22;;;1.50;;
47659;SDS011;33403;43.608;1.458;2023-07-13T06:24:33;4.30;;;1.52;;
47659;SDS011;33403;43.608;1.458;2023-07-13T06:26:58;6.10;;;1.73;;
47659;SDS011;33403;43.608;1.458;2023-07-13T06:29:24;5.38;;;1.63;;
47659;SDS011;33403;43.608;1.458;2023-07-13T06:31:50;3.75;;;1.60;;
47659;SDS011;33403;43.608;1.458;2023-07-13T06:34:15;6.95;;;1.70;;
47659;SDS011;33403;43.608;1.458;2023-07-13T06:36:41;4.30;;;1.60;;
47659;SDS011;33403;43.608;1.458;2023-07-13T06:39:07;4.57;;;1.70;;
47659;SDS011;33403;43.608;1.458;2023-07-13T06:41:32;3.45;;;1.65;;
47659;SDS011;33403;43.608;1.458;2023-07-13T06:43:59;4.80;;;1.50;;
47659;SDS011;33403;43.608;1.458;2023-07-13T06:46:24;4.15;;;1.58;;
47659;SDS011;33403;43.608;1.458;2023-07-13T06:48:50;4.70;;;1.70;;
47659;SDS011;33403;43.608;1.458;2023-07-13T06:51:16;4.43;;;1.70;;
47659;SDS011;33403;43.608;1.458;2023-07-13T06:53:41;3.83;;;1.50;;
47659;SDS011;33403;43.608;1.458;2023-07-13T06:56:08;4.07;;;1.95;;
47659;SDS011;33403;43.608;1.458;2023-07-13T06:58:35;3.60;;;1.40;;
47659;SDS011;33403;43.608;1.458;2023-07-13T07:01:01;6.82;;;1.70;;
47659;SDS011;33403;43.608;1.458;2023-07-13T07:03:28;5.13;;;1.40;;
47659;SDS011;33403;43.608;1.458;2023-07-13T07:05:54;5.47;;;1.30;;
47659;SDS011;33403;43.608;1.458;2023-07-13T07:08:25;8.13;;;1.30;;
47659;SDS011;33403;43.608;1.458;2023-07-13T07:10:51;3.80;;;1.13;;
47659;SDS011;33403;43.608;1.458;2023-07-13T07:13:19;3.38;;;1.50;;
47659;SDS011;33403;43.608;1.458;2023-07-13T07:15:44;4.40;;;1.80;;
47659;SDS011;33403;43.608;1.458;2023-07-13T07:18:10;5.38;;;1.30;;
47659;SDS011;33403;43.608;1.458;2023-07-13T07:20:36;3.90;;;1.58;;
47659;SDS011;33403;43.608;1.458;2023-07-13T07:23:01;3.78;;;1.30;;
47659;SDS011;33403;43.608;1.458;2023-07-13T07:25:27;3.72;;;1.52;;
47659;SDS011;33403;43.608;1.458;2023-07-13T07:27:56;5.10;;;1.38;;
47659;SDS011;33403;43.608;1.458;2023-07-13T07:30:23;4.45;;;1.30;;
47659;SDS011;33403;43.608;1.458;2023-07-13T07:32:48;2.90;;;1.10;;
47659;SDS011;33403;43.608;1.458;2023-07-13T07:35:14;3.95;;;1.10;;
47659;SDS011;33403;43.608;1.458;2023-07-13T07:37:39;5.57;;;1.50;;
47659;SDS011;33403;43.608;1.458;2023-07-13T07:40:05;2.92;;;1.20;;
47659;SDS011;33403;43.608;1.458;2023-07-13T07:42:33;4.97;;;1.13;;
47659;SDS011;33403;43.608;1.458;2023-07-13T07:44:58;2.88;;;1.10;;
47659;SDS011;33403;43.608;1.458;2023-07-13T07:47:25;4.00;;;1.08;;
47659;SDS011;33403;43.608;1.458;2023-07-13T07:49:51;3.53;;;1.30;;
47659;SDS011;33403;43.608;1.458;2023-07-13T07:52:17;2.42;;;0.90;;
47659;SDS011;33403;43.608;1.458;2023-07-13T07:54:43;3.35;;;1.10;;
47659;SDS011;33403;43.608;1.458;2023-07-13T07:57:09;1.40;;;1.10;;
47659;SDS011;33403;43.608;1.458;2023-07-13T07:59:35;2.38;;;0.93;;
47659;SDS011;33403;43.608;1.458;2023-07-13T08:02:01;3.35;;;1.20;;
47659;SDS011;33403;43.608;1.458;2023-07-13T08:04:27;4.40;;;1.35;;
47659;SDS011;33403;43.608;1.458;2023-07-13T08:06:53;2.90;;;1.10;;
47659;SDS011;33403;43.608;1.458;2023-07-13T08:09:21;3.08;;;1.20;;
47659;SDS011;33403;43.608;1.458;2023-07-13T08:11:46;2.50;;;1.20;;
47659;SDS011;33403;43.608;1.458;2023-07-13T08:14:12;3.58;;;1.10;;
47659;SDS011;33403;43.608;1.458;2023-07-13T08:16:39;3.83;;;1.33;;
47659;SDS011;33403;43.608;1.458;2023-07-13T08:19:05;4.45;;;1.25;;
47659;SDS011;33403;43.608;1.458;2023-07-13T08:21:31;2.47;;;1.30;;
47659;SDS011;33403;43.608;1.458;2023-07-13T08:23:56;3.33;;;1.23;;
47659;SDS011;33403;43.608;1.458;2023-07-13T08:26:22;2.85;;;1.27;;
47659;SDS011;33403;43.608;1.458;2023-07-13T08:28:48;2.90;;;1.10;;
47659;SDS011;33403;43.608;1.458;2023-07-13T08:31:14;3.03;;;1.10;;
47659;SDS011;33403;43.608;1.458;2023-07-13T08:33:40;1.27;;;0.90;;
47659;SDS011;33403;43.608;1.458;2023-07-13T08:36:06;3.15;;;1.00;;
47659;SDS011;33403;43.608;1.458;2023-07-13T08:38:32;2.15;;;0.90;;
47659;SDS011;33403;43.608;1.458;2023-07-13T08:40:58;1.80;;;0.90;;
47659;SDS011;33403;43.608;1.458;2023-07-13T08:43:28;2.65;;;1.00;;
47659;SDS011;33403;43.608;1.458;2023-07-13T08:46:09;1.08;;;0.70;;
47659;SDS011;33403;43.608;1.458;2023-07-13T08:48:52;1.50;;;0.80;;
47659;SDS011;33403;43.608;1.458;2023-07-13T08:51:41;2.05;;;1.00;;
47659;SDS011;33403;43.608;1.458;2023-07-13T08:54:19;4.32;;;0.90;;
47659;SDS011;33403;43.608;1.458;2023-07-13T08:56:54;4.55;;;1.30;;
47659;SDS011;33403;43.608;1.458;2023-07-13T08:59:26;2.92;;;0.90;;
47659;SDS011;33403;43.608;1.458;2023-07-13T09:04:41;4.32;;;0.90;;
47659;SDS011;33403;43.608;1.458;2023-07-13T09:12:51;3.15;;;1.10;;
47659;SDS011;33403;43.608;1.458;2023-07-13T09:15:27;3.67;;;1.00;;
47659;SDS011;33403;43.608;1.458;2023-07-13T09:17:57;2.80;;;1.10;;
47659;SDS011;33403;43.608;1.458;2023-07-13T09:22:58;4.60;;;1.15;;
47659;SDS011;33403;43.608;1.458;2023-07-13T09:27:56;5.47;;;1.20;;
47659;SDS011;33403;43.608;1.458;2023-07-13T09:30:31;2.60;;;1.10;;
47659;SDS011;33403;43.608;1.458;2023-07-13T09:33:03;3.05;;;1.20;;
47659;SDS011;33403;43.608;1.458;2023-07-13T09:35:29;3.17;;;1.30;;
47659;SDS011;33403;43.608;1.458;2023-07-13T09:38:03;3.65;;;1.23;;
47659;SDS011;33403;43.608;1.458;2023-07-13T09:40:43;3.60;;;1.13;;
47659;SDS011;33403;43.608;1.458;2023-07-13T09:43:10;2.35;;;1.13;;
47659;SDS011;33403;43.608;1.458;2023-07-13T09:45:39;2.90;;;1.05;;
47659;SDS011;33403;43.608;1.458;2023-07-13T09:48:15;2.10;;;1.20;;
47659;SDS011;33403;43.608;1.458;2023-07-13T09:50:42;2.17;;;1.00;;
47659;SDS011;33403;43.608;1.458;2023-07-13T09:53:15;4.20;;;1.25;;
47659;SDS011;33403;43.608;1.458;2023-07-13T09:55:44;2.85;;;1.02;;
47659;SDS011;33403;43.608;1.458;2023-07-13T10:00:53;2.08;;;1.00;;
47659;SDS011;33403;43.608;1.458;2023-07-13T10:03:24;2.03;;;1.00;;
47659;SDS011;33403;43.608;1.458;2023-07-13T10:05:52;2.80;;;1.13;;
47659;SDS011;33403;43.608;1.458;2023-07-13T10:08:26;2.20;;;1.10;;
47659;SDS011;33403;43.608;1.458;2023-07-13T10:10:54;1.95;;;0.95;;
47659;SDS011;33403;43.608;1.458;2023-07-13T10:15:54;3.00;;;0.90;;
47659;SDS011;33403;43.608;1.458;2023-07-13T10:18:22;3.88;;;1.02;;
47659;SDS011;33403;43.608;1.458;2023-07-13T10:20:51;2.42;;;0.95;;
47659;SDS011;33403;43.608;1.458;2023-07-13T10:23:24;2.38;;;1.00;;
47659;SDS011;33403;43.608;1.458;2023-07-13T10:25:57;3.60;;;1.10;;
47659;SDS011;33403;43.608;1.458;2023-07-13T10:28:30;2.95;;;1.05;;
47659;SDS011;33403;43.608;1.458;2023-07-13T10:31:00;2.60;;;1.00;;
47659;SDS011;33403;43.608;1.458;2023-07-13T10:33:27;3.10;;;0.93;;
47659;SDS011;33403;43.608;1.458;2023-07-13T10:35:55;4.72;;;1.35;;
47659;SDS011;33403;43.608;1.458;2023-07-13T10:38:39;3.33;;;1.35;;
47659;SDS011;33403;43.608;1.458;2023-07-13T10:41:06;2.53;;;1.23;;
47659;SDS011;33403;43.608;1.458;2023-07-13T10:43:41;2.45;;;1.08;;
47659;SDS011;33403;43.608;1.458;2023-07-13T10:46:10;2.50;;;1.10;;
47659;SDS011;33403;43.608;1.458;2023-07-13T10:48:39;2.58;;;1.20;;
47659;SDS011;33403;43.608;1.458;2023-07-13T10:51:07;2.08;;;1.10;;
47659;SDS011;33403;43.608;1.458;2023-07-13T10:53:36;2.20;;;1.30;;
47659;SDS011;33403;43.608;1.458;2023-07-13T10:56:05;2.75;;;1.00;;
47659;SDS011;33403;43.608;1.458;2023-07-13T10:58:44;4.43;;;1.23;;
47659;SDS011;33403;43.608;1.458;2023-07-13T11:01:12;3.15;;;1.17;;
47659;SDS011;33403;43.608;1.458;2023-07-13T11:06:13;2.10;;;1.00;;
47659;SDS011;33403;43.608;1.458;2023-07-13T11:13:56;3.00;;;1.08;;
47659;SDS011;33403;43.608;1.458;2023-07-13T11:16:43;3.70;;;1.05;;
47659;SDS011;33403;43.608;1.458;2023-07-13T11:27:46;2.17;;;1.17;;
47659;SDS011;33403;43.608;1.458;2023-07-13T11:32:41;3.50;;;1.10;;
47659;SDS011;33403;43.608;1.458;2023-07-13T11:35:20;2.35;;;1.10;;
47659;SDS011;33403;43.608;1.458;2023-07-13T11:37:51;3.15;;;1.10;;
47659;SDS011;33403;43.608;1.458;2023-07-13T11:40:17;3.58;;;1.20;;
47659;SDS011;33403;43.608;1.458;2023-07-13T11:42:44;4.70;;;1.27;;
47659;SDS011;33403;43.608;1.458;2023-07-13T11:45:22;2.53;;;1.17;;
47659;SDS011;33403;43.608;1.458;2023-07-13T11:47:48;4.40;;;1.30;;
47659;SDS011;33403;43.608;1.458;2023-07-13T11:50:22;3.90;;;1.25;;
47659;SDS011;33403;43.608;1.458;2023-07-13T11:52:49;2.97;;;1.00;;
47659;SDS011;33403;43.608;1.458;2023-07-13T11:55:19;3.92;;;1.20;;
47659;SDS011;33403;43.608;1.458;2023-07-13T11:57:50;4.72;;;1.27;;
47659;SDS011;33403;43.608;1.458;2023-07-13T12:00:22;3.72;;;1.23;;
47659;SDS011;33403;43.608;1.458;2023-07-13T12:02:53;3.20;;;1.30;;
47659;SDS011;33403;43.608;1.458;2023-07-13T12:05:21;3.00;;;1.10;;
47659;SDS011;33403;43.608;1.458;2023-07-13T12:07:47;1.98;;;1.10;;
47659;SDS011;33403;43.608;1.458;2023-07-13T12:12:51;2.28;;;1.30;;
47659;SDS011;33403;43.608;1.458;2023-07-13T12:15:19;2.38;;;1.20;;
47659;SDS011;33403;43.608;1.458;2023-07-13T12:17:47;5.05;;;1.38;;
47659;SDS011;33403;43.608;1.458;2023-07-13T12:20:20;3.05;;;0.95;;
47659;SDS011;33403;43.608;1.458;2023-07-13T12:22:49;2.40;;;1.10;;
47659;SDS011;33403;43.608;1.458;2023-07-13T12:25:15;3.97;;;1.40;;
47659;SDS011;33403;43.608;1.458;2023-07-13T12:27:42;2.15;;;1.05;;
47659;SDS011;33403;43.608;1.458;2023-07-13T12:32:55;1.98;;;1.30;;
47659;SDS011;33403;43.608;1.458;2023-07-13T12:35:22;2.80;;;1.27;;
47659;SDS011;33403;43.608;1.458;2023-07-13T12:37:47;2.95;;;1.10;;
47659;SDS011;33403;43.608;1.458;2023-07-13T12:40:14;2.10;;;1.10;;
47659;SDS011;33403;43.608;1.458;2023-07-13T12:42:43;4.10;;;1.30;;
47659;SDS011;33403;43.608;1.458;2023-07-13T12:45:19;5.07;;;1.13;;
47659;SDS011;33403;43.608;1.458;2023-07-13T12:47:48;3.35;;;1.20;;
47659;SDS011;33403;43.608;1.458;2023-07-13T12:50:19;2.08;;;1.02;;
47659;SDS011;33403;43.608;1.458;2023-07-13T12:52:53;3.38;;;1.23;;
47659;SDS011;33403;43.608;1.458;2023-07-13T12:55:21;5.03;;;1.30;;
47659;SDS011;33403;43.608;1.458;2023-07-13T12:57:54;2.58;;;1.20;;
47659;SDS011;33403;43.608;1.458;2023-07-13T13:00:28;2.22;;;1.00;;
47659;SDS011;33403;43.608;1.458;2023-07-13T13:03:06;2.47;;;1.00;;
47659;SDS011;33403;43.608;1.458;2023-07-13T13:05:45;2.00;;;0.90;;
47659;SDS011;33403;43.608;1.458;2023-07-13T13:08:11;2.15;;;1.08;;
47659;SDS011;33403;43.608;1.458;2023-07-13T13:10:36;2.55;;;1.00;;
47659;SDS011;33403;43.608;1.458;2023-07-13T13:13:02;2.22;;;0.90;;
47659;SDS011;33403;43.608;1.458;2023-07-13T13:15:28;2.47;;;0.95;;
47659;SDS011;33403;43.608;1.458;2023-07-13T13:17:55;3.05;;;1.10;;
47659;SDS011;33403;43.608;1.458;2023-07-13T13:20:21;1.77;;;1.00;;
47659;SDS011;33403;43.608;1.458;2023-07-13T13:22:48;2.47;;;1.08;;
47659;SDS011;33403;43.608;1.458;2023-07-13T13:25:14;4.55;;;1.27;;
47659;SDS011;33403;43.608;1.458;2023-07-13T13:27:40;2.92;;;1.10;;
47659;SDS011;33403;43.608;1.458;2023-07-13T13:32:38;2.78;;;1.02;;
47659;SDS011;33403;43.608;1.458;2023-07-13T13:35:05;3.45;;;1.02;;
47659;SDS011;33403;43.608;1.458;2023-07-13T13:37:33;1.67;;;1.10;;
47659;SDS011;33403;43.608;1.458;2023-07-13T13:39:59;2.45;;;1.17;;
47659;SDS011;33403;43.608;1.458;2023-07-13T13:42:25;2.47;;;1.00;;
47659;SDS011;33403;43.608;1.458;2023-07-13T13:44:52;4.15;;;1.10;;
47659;SDS011;33403;43.608;1.458;2023-07-13T13:47:33;2.33;;;1.17;;
47659;SDS011;33403;43.608;1.458;2023-07-13T13:50:01;3.33;;;1.13;;
47659;SDS011;33403;43.608;1.458;2023-07-13T13:52:34;2.22;;;1.10;;
47659;SDS011;33403;43.608;1.458;2023-07-13T13:55:00;3.30;;;1.20;;
47659;SDS011;33403;43.608;1.458;2023-07-13T13:57:26;2.88;;;0.90;;
47659;SDS011;33403;43.608;1.458;2023-07-13T13:59:51;1.63;;;0.90;;
47659;SDS011;33403;43.608;1.458;2023-07-13T14:04:55;1.77;;;0.80;;
47659;SDS011;33403;43.608;1.458;2023-07-13T14:07:27;3.65;;;1.23;;
47659;SDS011;33403;43.608;1.458;2023-07-13T14:09:55;2.78;;;1.30;;
47659;SDS011;33403;43.608;1.458;2023-07-13T14:12:23;2.92;;;1.10;;
47659;SDS011;33403;43.608;1.458;2023-07-13T14:14:53;2.75;;;1.17;;
47659;SDS011;33403;43.608;1.458;2023-07-13T14:17:20;2.67;;;1.00;;
47659;SDS011;33403;43.608;1.458;2023-07-13T14:19:49;2.28;;;0.90;;
47659;SDS011;33403;43.608;1.458;2023-07-13T14:22:16;2.05;;;1.05;;
47659;SDS011;33403;43.608;1.458;2023-07-13T14:24:43;2.45;;;1.10;;
47659;SDS011;33403;43.608;1.458;2023-07-13T14:27:10;2.92;;;1.10;;
47659;SDS011;33403;43.608;1.458;2023-07-13T14:29:37;1.02;;;0.90;;
47659;SDS011;33403;43.608;1.458;2023-07-13T14:32:03;4.00;;;1.10;;
47659;SDS011;33403;43.608;1.458;2023-07-13T14:34:31;1.95;;;1.05;;
47659;SDS011;33403;43.608;1.458;2023-07-13T14:36:56;2.55;;;1.00;;
47659;SDS011;33403;43.608;1.458;2023-07-13T14:39:23;3.92;;;1.20;;
47659;SDS011;33403;43.608;1.458;2023-07-13T14:41:50;2.58;;;1.25;;
47659;SDS011;33403;43.608;1.458;2023-07-13T14:44:21;3.17;;;1.00;;
47659;SDS011;33403;43.608;1.458;2023-07-13T14:46:53;3.90;;;1.10;;
47659;SDS011;33403;43.608;1.458;2023-07-13T14:49:34;1.90;;;1.05;;
47659;SDS011;33403;43.608;1.458;2023-07-13T14:52:09;2.78;;;0.98;;
47659;SDS011;33403;43.608;1.458;2023-07-13T14:54:43;2.55;;;1.10;;
47659;SDS011;33403;43.608;1.458;2023-07-13T14:57:11;4.20;;;1.13;;
47659;SDS011;33403;43.608;1.458;2023-07-13T14:59:37;3.42;;;1.10;;
47659;SDS011;33403;43.608;1.458;2023-07-13T15:02:08;2.63;;;1.00;;
47659;SDS011;33403;43.608;1.458;2023-07-13T15:04:43;3.65;;;1.35;;
47659;SDS011;33403;43.608;1.458;2023-07-13T15:07:09;2.63;;;1.20;;
47659;SDS011;33403;43.608;1.458;2023-07-13T15:09:36;3.17;;;1.02;;
47659;SDS011;33403;43.608;1.458;2023-07-13T15:12:02;2.65;;;1.25;;
47659;SDS011;33403;43.608;1.458;2023-07-13T15:14:30;4.07;;;1.15;;
47659;SDS011;33403;43.608;1.458;2023-07-13T15:16:56;2.97;;;1.38;;
47659;SDS011;33403;43.608;1.458;2023-07-13T15:19:21;2.67;;;1.30;;
47659;SDS011;33403;43.608;1.458;2023-07-13T15:21:48;7.13;;;1.27;;
47659;SDS011;33403;43.608;1.458;2023-07-13T15:24:15;1.90;;;1.13;;
47659;SDS011;33403;43.608;1.458;2023-07-13T15:26:41;2.55;;;0.90;;
47659;SDS011;33403;43.608;1.458;2023-07-13T15:29:11;3.53;;;1.10;;
47659;SDS011;33403;43.608;1.458;2023-07-13T15:31:37;2.50;;;1.10;;
47659;SDS011;33403;43.608;1.458;2023-07-13T15:34:04;2.10;;;1.05;;
47659;SDS011;33403;43.608;1.458;2023-07-13T15:36:39;2.05;;;1.10;;
47659;SDS011;33403;43.608;1.458;2023-07-13T15:39:05;2.60;;;1.05;;
47659;SDS011;33403;43.608;1.458;2023-07-13T15:41:31;2.80;;;1.10;;
47659;SDS011;33403;43.608;1.458;2023-07-13T15:43:59;3.60;;;1.27;;